Time;durP1;ratioP1;P1;durP2;ratioP2;P2;SDS_P1;SDS_P2;PMS_P1;PMS_P2;Temp;Humidity;BMP_temperature;BMP_pressure;BME280_temperature;BME280_humidity;BME280_pressure;Samples;Min_cycle;Max_cycle;Signal;HPM_P1;HPM_P2
2022/03/06 00:01:40;;;;;;;33.65;14.65;;;;;;;3.01;47.62;101794.16;5077308;28;20070;-64
2022/03/06 00:04:07;;;;;;;37.38;14.82;;;;;;;2.91;47.29;101796.44;5094823;28;20047;-64
2022/03/06 00:06:34;;;;;;;32.45;14.70;;;;;;;2.97;47.55;101798.72;5060680;28;20052;-64
2022/03/06 00:09:02;;;;;;;33.65;14.77;;;;;;;2.94;47.49;101798.88;5051265;28;20049;-65
2022/03/06 00:11:28;;;;;;;34.65;15.13;;;;;;;2.83;47.24;101802.03;5011567;28;20052;-64
2022/03/06 00:13:55;;;;;;;31.15;14.50;;;;;;;2.91;47.43;101804.28;5054724;28;20505;-64
2022/03/06 00:16:23;;;;;;;36.30;15.27;;;;;;;2.87;47.71;101808.84;5054864;28;20071;-65
2022/03/06 00:18:49;;;;;;;31.85;14.82;;;;;;;2.84;47.89;101795.88;5036793;28;20073;-64
2022/03/06 00:21:16;;;;;;;39.42;14.90;;;;;;;2.83;48.70;101803.81;5053498;28;20043;-64
2022/03/06 00:23:43;;;;;;;31.90;14.77;;;;;;;2.86;48.53;101799.25;5054343;28;20045;-64
2022/03/06 00:26:09;;;;;;;32.83;14.90;;;;;;;2.79;49.57;101791.81;5020523;28;20405;-64
2022/03/06 00:28:36;;;;;;;35.20;14.95;;;;;;;2.77;48.54;101798.91;5054231;28;20037;-64
2022/03/06 00:31:03;;;;;;;33.22;15.27;;;;;;;2.65;48.83;101790.72;5054241;28;20051;-65
2022/03/06 00:33:30;;;;;;;32.65;15.38;;;;;;;2.57;48.81;101792.88;5053989;28;20448;-65
2022/03/06 00:35:57;;;;;;;31.88;14.52;;;;;;;2.65;47.97;101792.50;5053119;28;20047;-64
2022/03/06 00:38:24;;;;;;;35.50;14.90;;;;;;;2.58;49.79;101791.09;5053073;28;20044;-65
2022/03/06 00:40:51;;;;;;;32.75;15.57;;;;;;;2.58;50.01;101797.16;5054311;28;20045;-64
2022/03/06 00:43:18;;;;;;;33.90;14.95;;;;;;;2.56;50.14;101796.41;5053035;28;20045;-64
2022/03/06 00:45:45;;;;;;;36.55;15.45;;;;;;;2.47;50.11;101796.88;5020515;28;20519;-64
2022/03/06 00:48:12;;;;;;;33.08;14.68;;;;;;;2.45;49.70;101798.72;5053972;28;20098;-65
2022/03/06 00:50:40;;;;;;;34.38;15.88;;;;;;;2.45;49.84;101798.72;5053818;28;20106;-65
2022/03/06 00:53:07;;;;;;;35.00;15.10;;;;;;;2.41;48.83;101803.25;5052929;28;20040;-64
2022/03/06 00:55:37;;;;;;;33.65;15.32;;;;;;;2.30;49.65;101806.41;5055710;28;20049;-64
2022/03/06 00:58:06;;;;;;;35.22;15.55;;;;;;;2.20;50.20;101806.91;5054976;28;20045;-64
2022/03/06 01:00:35;;;;;;;38.30;16.27;;;;;;;2.22;49.90;101805.06;5053300;28;20033;-65
2022/03/06 01:03:04;;;;;;;33.60;15.50;;;;;;;2.21;49.39;101809.47;5052406;28;20126;-65
2022/03/06 01:05:31;;;;;;;34.03;15.60;;;;;;;2.21;50.61;101806.84;5041587;28;20482;-65
2022/03/06 01:07:58;;;;;;;36.65;14.73;;;;;;;2.17;49.92;101809.69;5032511;28;20095;-64
2022/03/06 01:10:26;;;;;;;36.05;15.70;;;;;;;2.11;49.39;101808.19;5051144;28;20090;-65
2022/03/06 01:12:52;;;;;;;35.40;16.17;;;;;;;2.08;50.39;101810.97;5052797;28;20044;-65
2022/03/06 01:15:19;;;;;;;37.28;15.23;;;;;;;2.16;50.79;101814.06;5019687;28;20062;-65
2022/03/06 01:17:46;;;;;;;37.33;15.82;;;;;;;2.12;50.48;101820.38;5052072;28;20059;-66
2022/03/06 01:20:13;;;;;;;37.15;15.45;;;;;;;2.01;50.86;101817.44;5053644;28;20064;-65
2022/03/06 01:22:40;;;;;;;31.90;14.98;;;;;;;2.07;50.89;101828.47;5052295;28;20041;-65
2022/03/06 01:25:07;;;;;;;33.83;15.45;;;;;;;1.85;51.95;101822.53;5053384;28;20452;-65
2022/03/06 01:27:33;;;;;;;33.78;15.95;;;;;;;2.00;51.98;101819.19;5052190;28;20045;-65
2022/03/06 01:30:00;;;;;;;37.85;16.63;;;;;;;2.06;51.67;101828.53;5051942;28;20049;-65
2022/03/06 01:32:27;;;;;;;35.50;16.13;;;;;;;2.06;52.11;101826.75;5035246;28;20142;-65
2022/03/06 01:34:54;;;;;;;39.00;16.05;;;;;;;2.05;52.54;101826.81;5052292;28;20055;-65
2022/03/06 01:37:20;;;;;;;36.78;15.88;;;;;;;2.10;51.60;101830.06;5035665;28;20045;-65
2022/03/06 01:39:47;;;;;;;39.65;16.27;;;;;;;2.02;51.97;101829.56;5035840;28;20075;-65
2022/03/06 01:42:14;;;;;;;37.30;16.08;;;;;;;1.95;52.39;101828.16;5052142;28;20052;-65
2022/03/06 01:44:44;;;;;;;38.83;15.93;;;;;;;2.06;52.91;101837.22;5052098;28;20444;-65
2022/03/06 01:47:11;;;;;;;37.60;16.45;;;;;;;1.95;52.42;101833.41;5052989;28;20516;-65
2022/03/06 01:49:37;;;;;;;40.33;17.65;;;;;;;2.01;51.83;101836.59;5052662;28;20446;-65
2022/03/06 01:52:04;;;;;;;33.65;15.35;;;;;;;2.00;51.70;101832.28;5052924;28;20049;-65
2022/03/06 01:54:31;;;;;;;38.13;16.83;;;;;;;2.02;52.97;101838.28;5035592;28;20095;-65
2022/03/06 01:57:02;;;;;;;43.20;16.65;;;;;;;2.03;52.05;101831.28;5052971;28;20041;-65
2022/03/06 01:59:29;;;;;;;37.90;16.38;;;;;;;2.01;52.39;101833.97;5046836;28;20159;-64
2022/03/06 02:01:56;;;;;;;43.38;16.90;;;;;;;2.00;53.35;101828.81;5031693;28;20084;-65
2022/03/06 02:04:22;;;;;;;33.38;15.65;;;;;;;2.04;53.32;101838.22;5032341;28;20042;-65
2022/03/06 02:06:49;;;;;;;38.17;16.10;;;;;;;1.94;53.99;101836.94;5032265;28;20501;-65
2022/03/06 02:09:16;;;;;;;36.13;15.95;;;;;;;1.99;53.37;101840.22;5070280;28;20131;-65
2022/03/06 02:11:42;;;;;;;37.75;16.55;;;;;;;1.95;53.57;101838.63;5071552;28;20040;-65
2022/03/06 02:14:10;;;;;;;38.80;16.65;;;;;;;1.92;53.26;101837.84;5072731;28;20400;-65
2022/03/06 02:16:36;;;;;;;34.83;15.57;;;;;;;1.92;51.92;101844.88;5055354;28;20110;-65
2022/03/06 02:19:03;;;;;;;37.22;15.55;;;;;;;1.73;52.41;101842.25;5072470;28;20045;-65
2022/03/06 02:21:30;;;;;;;37.72;16.60;;;;;;;1.54;53.08;101843.06;5071633;28;20086;-64
2022/03/06 02:23:56;;;;;;;38.30;16.90;;;;;;;1.51;53.67;101840.63;5071346;28;20055;-65
2022/03/06 02:26:23;;;;;;;38.88;15.68;;;;;;;1.60;54.34;101835.88;5072860;28;20040;-65
2022/03/06 02:28:50;;;;;;;42.33;16.52;;;;;;;1.58;55.39;101843.78;5071146;28;20047;-65
2022/03/06 02:31:16;;;;;;;36.40;16.23;;;;;;;1.47;53.91;101827.72;5071342;28;20090;-65
2022/03/06 02:33:43;;;;;;;38.35;16.25;;;;;;;1.50;54.97;101833.66;5072294;28;20032;-65
2022/03/06 02:36:10;;;;;;;40.10;16.10;;;;;;;1.54;55.13;101826.53;5071553;28;20048;-65
2022/03/06 02:38:37;;;;;;;42.58;16.42;;;;;;;1.53;55.13;101830.09;5071562;28;20468;-65
2022/03/06 02:41:03;;;;;;;42.38;16.88;;;;;;;1.46;56.21;101826.88;5054833;28;20049;-65
2022/03/06 02:43:30;;;;;;;38.28;16.10;;;;;;;1.43;55.87;101831.41;5071221;28;20045;-65
2022/03/06 02:45:57;;;;;;;37.28;15.43;;;;;;;1.37;57.63;101826.47;5054752;28;20075;-65
2022/03/06 02:48:24;;;;;;;39.22;16.35;;;;;;;1.42;56.40;101832.31;5071329;28;20139;-65
2022/03/06 02:50:52;;;;;;;37.85;16.52;;;;;;;1.42;56.96;101825.34;5072238;28;20076;-65
2022/03/06 02:53:20;;;;;;;37.10;16.10;;;;;;;1.32;56.04;101822.25;5072452;28;20040;-65
2022/03/06 02:55:47;;;;;;;37.33;16.90;;;;;;;1.30;57.33;101826.72;5054688;28;20098;-65
2022/03/06 02:58:15;;;;;;;38.22;16.20;;;;;;;1.34;56.88;101823.03;5055108;28;20127;-64
2022/03/06 03:00:42;;;;;;;38.42;15.43;;;;;;;1.26;57.62;101825.16;5051131;28;20041;-65
2022/03/06 03:03:09;;;;;;;40.45;16.25;;;;;;;1.24;57.75;101819.16;5047691;28;20072;-64
2022/03/06 03:05:36;;;;;;;38.08;15.65;;;;;;;1.27;57.43;101819.00;5037525;28;20053;-64
2022/03/06 03:08:02;;;;;;;41.58;16.90;;;;;;;1.26;57.64;101824.31;5041991;28;20409;-65
2022/03/06 03:10:29;;;;;;;42.63;16.98;;;;;;;1.22;57.22;101826.22;5031046;28;20510;-64
2022/03/06 03:12:56;;;;;;;39.75;17.23;;;;;;;1.28;56.47;101828.56;5031057;28;20048;-65
2022/03/06 03:15:23;;;;;;;43.92;17.73;;;;;;;1.33;57.13;101829.19;5031887;28;20048;-65
2022/03/06 03:17:50;;;;;;;40.88;15.90;;;;;;;1.31;57.17;101825.81;5034235;28;20378;-64
2022/03/06 03:20:17;;;;;;;41.20;15.90;;;;;;;1.36;57.79;101829.97;5035910;28;20046;-65
2022/03/06 03:22:44;;;;;;;38.78;16.25;;;;;;;1.40;57.00;101835.03;5051255;28;20041;-65
2022/03/06 03:25:11;;;;;;;39.65;17.13;;;;;;;1.40;56.60;101840.25;5034556;28;20474;-65
2022/03/06 03:27:39;;;;;;;40.25;15.10;;;;;;;1.43;56.69;101834.03;5011958;28;20053;-65
2022/03/06 03:30:07;;;;;;;42.05;16.27;;;;;;;1.50;56.42;101835.44;5034346;28;20046;-65
2022/03/06 03:32:34;;;;;;;37.95;16.55;;;;;;;1.53;56.84;101843.16;5034030;28;20037;-65
2022/03/06 03:35:01;;;;;;;36.95;15.75;;;;;;;1.55;57.48;101841.31;5034568;28;20481;-65
2022/03/06 03:37:28;;;;;;;38.08;15.88;;;;;;;1.57;56.80;101834.25;5035610;28;20037;-65
2022/03/06 03:39:54;;;;;;;41.47;16.13;;;;;;;1.60;56.38;101841.97;5037854;28;20572;-65
2022/03/06 03:42:21;;;;;;;35.08;16.10;;;;;;;1.68;56.07;101845.06;5054125;28;20037;-65
2022/03/06 03:44:48;;;;;;;41.10;16.67;;;;;;;1.71;54.90;101834.47;5037916;28;20505;-65
2022/03/06 03:47:15;;;;;;;35.85;15.90;;;;;;;1.76;54.64;101843.88;5054041;28;20497;-65
2022/03/06 03:49:41;;;;;;;40.78;16.25;;;;;;;1.73;55.27;101850.94;5037231;28;20432;-65
2022/03/06 03:52:08;;;;;;;37.80;16.10;;;;;;;1.82;55.10;101851.44;5055057;28;20037;-65
2022/03/06 03:54:35;;;;;;;36.08;16.15;;;;;;;1.91;55.47;101848.38;5037387;28;20060;-65
2022/03/06 03:57:02;;;;;;;41.40;16.23;;;;;;;1.93;54.84;101846.59;5041809;28;20076;-65
2022/03/06 03:59:32;;;;;;;37.58;15.88;;;;;;;2.02;54.54;101848.75;5038292;28;20068;-65
2022/03/06 04:01:58;;;;;;;38.35;16.42;;;;;;;2.03;55.18;101854.84;5054077;28;20079;-64
2022/03/06 04:04:26;;;;;;;42.15;16.25;;;;;;;2.07;55.26;101852.03;5053153;28;20047;-65
2022/03/06 04:06:53;;;;;;;34.88;15.85;;;;;;;2.12;54.75;101843.94;5037281;28;20071;-64
2022/03/06 04:09:20;;;;;;;37.38;16.33;;;;;;;2.14;54.35;101847.31;5052752;28;20501;-65
2022/03/06 04:11:46;;;;;;;40.70;16.65;;;;;;;2.13;54.62;101858.75;5037142;28;20464;-65
2022/03/06 04:14:13;;;;;;;41.70;17.17;;;;;;;2.08;54.78;101851.09;5070351;28;20041;-65
2022/03/06 04:16:41;;;;;;;33.42;14.80;;;;;;;2.06;55.67;101857.31;5053611;28;20056;-65
2022/03/06 04:19:07;;;;;;;41.50;17.63;;;;;;;2.19;54.31;101860.22;5054376;28;20052;-65
2022/03/06 04:21:34;;;;;;;41.05;16.30;;;;;;;2.05;54.51;101856.47;5054719;28;20037;-64
2022/03/06 04:24:01;;;;;;;36.83;16.02;;;;;;;2.08;55.34;101858.94;5054444;28;20056;-65
2022/03/06 04:26:28;;;;;;;36.05;15.65;;;;;;;2.13;54.71;101856.13;5054622;28;20068;-65
2022/03/06 04:28:54;;;;;;;38.33;16.20;;;;;;;2.11;54.46;101866.66;5052825;28;20411;-64
2022/03/06 04:31:21;;;;;;;36.38;16.42;;;;;;;2.06;54.23;101873.88;5033348;28;20040;-64
2022/03/06 04:33:48;;;;;;;39.83;16.35;;;;;;;2.08;54.67;101872.03;5034209;28;20042;-65
2022/03/06 04:36:14;;;;;;;39.88;16.63;;;;;;;2.07;54.64;101869.47;5034554;28;20045;-65
2022/03/06 04:38:41;;;;;;;37.38;15.75;;;;;;;2.13;54.41;101878.81;5034414;28;20099;-64
2022/03/06 04:41:09;;;;;;;40.17;16.70;;;;;;;2.00;54.15;101876.78;5033113;28;20536;-65
2022/03/06 04:43:37;;;;;;;39.63;16.38;;;;;;;1.86;54.05;101879.19;5033004;28;20045;-64
2022/03/06 04:46:04;;;;;;;36.83;15.32;;;;;;;1.83;54.34;101882.78;5033340;28;20456;-64
2022/03/06 04:48:31;;;;;;;32.20;15.40;;;;;;;1.96;54.82;101887.44;5032788;28;20041;-65
2022/03/06 04:50:58;;;;;;;38.58;16.10;;;;;;;2.00;55.31;101889.00;5032904;28;20041;-65
2022/03/06 04:53:25;;;;;;;36.78;15.75;;;;;;;2.02;54.69;101892.38;5033059;28;20049;-65
2022/03/06 04:55:52;;;;;;;38.40;16.10;;;;;;;2.00;55.01;101895.09;5034121;28;20052;-64
2022/03/06 04:58:19;;;;;;;38.55;16.40;;;;;;;2.05;54.32;101882.63;5032822;28;20045;-64
2022/03/06 05:00:48;;;;;;;37.58;15.77;;;;;;;2.15;53.63;101890.06;5048423;28;20394;-65
2022/03/06 05:03:15;;;;;;;33.70;15.07;;;;;;;2.14;53.93;101888.38;5052102;28;20403;-65
2022/03/06 05:05:42;;;;;;;37.45;16.35;;;;;;;2.09;55.25;101888.56;5068906;28;20052;-64
2022/03/06 05:08:08;;;;;;;42.00;17.20;;;;;;;2.10;55.13;101888.50;5039823;28;20048;-65
2022/03/06 05:10:36;;;;;;;32.25;15.35;;;;;;;2.10;54.24;101891.13;5056842;28;20041;-65
2022/03/06 05:13:03;;;;;;;36.17;15.63;;;;;;;2.08;54.42;101886.91;5073715;28;20045;-65
2022/03/06 05:15:29;;;;;;;37.83;16.10;;;;;;;2.01;55.57;101885.47;5073579;28;20512;-65
2022/03/06 05:17:56;;;;;;;34.92;15.88;;;;;;;2.01;55.23;101881.09;5056121;28;20052;-64
2022/03/06 05:20:23;;;;;;;36.28;16.35;;;;;;;1.99;54.78;101888.16;5055529;28;20382;-65
2022/03/06 05:22:49;;;;;;;36.92;15.27;;;;;;;1.89;55.46;101885.13;5072539;28;20091;-65
2022/03/06 05:25:16;;;;;;;34.33;15.32;;;;;;;1.93;55.70;101878.00;5022959;28;20086;-64
2022/03/06 05:27:43;;;;;;;36.33;15.85;;;;;;;1.92;55.26;101876.28;5039323;28;20048;-65
2022/03/06 05:30:11;;;;;;;38.03;15.95;;;;;;;1.76;55.25;101880.50;5050888;28;20498;-65
2022/03/06 05:32:39;;;;;;;33.70;15.38;;;;;;;1.69;54.88;101891.25;4999506;28;20053;-65
2022/03/06 05:35:07;;;;;;;37.53;15.82;;;;;;;1.78;55.31;101884.75;5015649;28;20107;-65
2022/03/06 05:37:33;;;;;;;34.38;15.05;;;;;;;1.68;56.05;101893.94;5032303;28;20061;-65
2022/03/06 05:40:01;;;;;;;35.15;15.20;;;;;;;1.63;56.61;101886.28;5033076;28;20044;-65
2022/03/06 05:42:28;;;;;;;37.40;14.70;;;;;;;1.62;56.30;101882.00;5033139;28;20055;-65
2022/03/06 05:44:54;;;;;;;34.00;15.98;;;;;;;1.56;56.83;101889.25;5032134;28;20104;-65
2022/03/06 05:47:21;;;;;;;36.10;15.48;;;;;;;1.48;56.74;101894.81;5032114;28;20045;-65
2022/03/06 05:49:48;;;;;;;37.88;16.50;;;;;;;1.31;57.20;101893.78;5032768;28;20056;-65
2022/03/06 05:52:16;;;;;;;35.10;15.70;;;;;;;1.30;57.40;101899.06;5032014;28;20045;-65
2022/03/06 05:54:43;;;;;;;41.67;16.08;;;;;;;1.12;57.92;101904.16;5031919;28;20045;-65
2022/03/06 05:57:10;;;;;;;40.42;16.05;;;;;;;1.11;58.65;101904.22;5044595;28;20076;-64
2022/03/06 05:59:37;;;;;;;32.47;15.65;;;;;;;0.83;59.06;101907.13;5061114;28;20045;-65
2022/03/06 06:02:05;;;;;;;35.28;15.85;;;;;;;0.37;60.32;101918.50;5017816;28;20063;-65
2022/03/06 06:04:32;;;;;;;33.03;15.45;;;;;;;0.42;60.87;101920.06;5032122;28;20049;-65
2022/03/06 06:06:59;;;;;;;34.17;14.43;;;;;;;0.29;61.54;101923.19;5001618;28;20106;-65
2022/03/06 06:09:26;;;;;;;33.60;14.88;;;;;;;0.34;60.77;101930.81;5051101;28;20116;-65
2022/03/06 06:11:52;;;;;;;42.85;15.95;;;;;;;-0.11;62.74;101937.72;5018561;28;20045;-65
2022/03/06 06:14:19;;;;;;;37.05;15.93;;;;;;;-0.35;64.12;101938.59;5035428;28;20144;-64
2022/03/06 06:16:46;;;;;;;36.83;15.50;;;;;;;-0.05;63.73;101939.25;5051513;28;20102;-64
2022/03/06 06:19:13;;;;;;;41.30;16.67;;;;;;;0.07;63.26;101948.38;5067984;28;20124;-64
2022/03/06 06:21:43;;;;;;;40.95;15.77;;;;;;;-0.17;63.41;101944.91;5052808;28;20037;-64
2022/03/06 06:24:11;;;;;;;44.15;17.13;;;;;;;-0.20;65.68;101951.94;5052666;28;20049;-65
2022/03/06 06:26:38;;;;;;;37.33;16.38;;;;;;;-0.17;65.20;101952.72;5051851;28;20045;-65
2022/03/06 06:29:05;;;;;;;38.03;15.55;;;;;;;-0.26;65.68;101959.97;5033354;28;20075;-64
2022/03/06 06:31:31;;;;;;;39.42;15.27;;;;;;;-0.15;66.08;101961.34;5031479;28;20045;-64
2022/03/06 06:33:58;;;;;;;40.60;17.35;;;;;;;-0.03;66.97;101953.94;5014802;28;20041;-64
2022/03/06 06:36:25;;;;;;;43.25;17.92;;;;;;;0.11;65.57;101960.38;5031727;28;20088;-64
2022/03/06 06:38:53;;;;;;;46.60;17.52;;;;;;;0.12;65.57;101959.50;5014933;28;20124;-65
2022/03/06 06:41:20;;;;;;;42.33;16.92;;;;;;;0.12;64.82;101962.09;5031902;28;20506;-64
2022/03/06 06:43:47;;;;;;;47.10;19.88;;;;;;;0.04;65.16;101965.00;5032559;28;20068;-64
2022/03/06 06:46:13;;;;;;;43.47;18.50;;;;;;;0.05;65.64;101969.28;5015315;28;20046;-64
2022/03/06 06:48:40;;;;;;;50.63;19.67;;;;;;;0.09;65.58;101977.84;5031177;28;20049;-64
2022/03/06 06:51:08;;;;;;;47.03;18.45;;;;;;;0.12;65.22;101978.59;5017323;28;20053;-64
2022/03/06 06:53:35;;;;;;;51.50;21.10;;;;;;;0.09;65.92;101978.72;5034958;28;20448;-64
2022/03/06 06:56:03;;;;;;;55.95;21.88;;;;;;;-0.03;66.82;101994.81;5035542;28;20056;-64
2022/03/06 06:58:29;;;;;;;49.65;21.58;;;;;;;-0.03;66.57;101987.84;5036439;28;20236;-64
2022/03/06 07:00:56;;;;;;;46.55;21.10;;;;;;;0.03;66.66;101996.34;5044694;28;20045;-63
2022/03/06 07:03:26;;;;;;;55.65;22.65;;;;;;;-0.08;67.57;101999.34;5054531;28;20121;-64
2022/03/06 07:05:52;;;;;;;49.80;21.30;;;;;;;-0.15;67.51;101997.88;5054961;28;20140;-64
2022/03/06 07:08:20;;;;;;;56.45;22.52;;;;;;;-0.19;68.64;102002.34;5041772;28;20052;-64
2022/03/06 07:10:46;;;;;;;50.90;20.88;;;;;;;-0.17;68.53;101997.91;5074554;28;20040;-63
2022/03/06 07:13:13;;;;;;;52.85;21.67;;;;;;;-0.18;68.48;101998.84;5074674;28;20037;-64
2022/03/06 07:15:40;;;;;;;56.30;22.30;;;;;;;-0.16;68.57;102009.19;5058069;28;20090;-64
2022/03/06 07:18:07;;;;;;;50.58;20.83;;;;;;;-0.12;68.57;102011.66;5078748;28;20048;-65
2022/03/06 07:20:33;;;;;;;51.25;22.15;;;;;;;-0.05;68.07;102018.34;5076993;28;20056;-64
2022/03/06 07:23:02;;;;;;;50.60;20.30;;;;;;;0.12;67.49;102011.69;5074619;28;20097;-64
2022/03/06 07:25:29;;;;;;;48.15;19.88;;;;;;;0.40;67.38;102003.69;5074726;28;20048;-64
2022/03/06 07:27:56;;;;;;;51.47;20.25;;;;;;;0.57;66.46;102013.50;5074685;28;20139;-64
2022/03/06 07:30:23;;;;;;;48.83;20.42;;;;;;;0.77;66.23;102002.28;5045435;28;20067;-64
2022/03/06 07:32:52;;;;;;;46.42;19.80;;;;;;;0.87;64.89;102008.81;5054318;28;20077;-64
2022/03/06 07:35:20;;;;;;;49.10;20.40;;;;;;;1.04;64.13;102008.19;5055004;28;20401;-64
2022/03/06 07:37:47;;;;;;;42.70;18.92;;;;;;;1.19;63.21;102003.25;5021507;28;20041;-64
2022/03/06 07:40:17;;;;;;;46.45;20.05;;;;;;;1.24;62.51;102002.16;5054381;28;20091;-64
2022/03/06 07:42:44;;;;;;;48.42;19.90;;;;;;;1.38;62.23;102009.41;5053995;28;20559;-64
2022/03/06 07:45:12;;;;;;;45.83;19.92;;;;;;;1.00;63.27;102019.69;5054228;28;20451;-64
2022/03/06 07:47:39;;;;;;;46.08;21.17;;;;;;;1.07;63.88;102012.41;5037343;28;20068;-64
2022/03/06 07:50:07;;;;;;;49.75;20.73;;;;;;;0.93;63.53;102023.44;5053662;28;20497;-64
2022/03/06 07:52:35;;;;;;;49.78;20.90;;;;;;;0.95;63.55;102016.38;5053542;28;20040;-64
2022/03/06 07:55:02;;;;;;;47.10;21.33;;;;;;;1.00;64.52;102027.53;5020983;28;20559;-64
2022/03/06 07:57:29;;;;;;;47.60;19.52;;;;;;;1.31;63.85;102023.63;5045902;28;20059;-64
2022/03/06 07:59:56;;;;;;;43.80;19.58;;;;;;;1.51;63.65;102035.91;5073667;28;20102;-64
2022/03/06 08:02:22;;;;;;;49.67;20.67;;;;;;;1.38;63.62;102030.31;5073268;28;20041;-64
2022/03/06 08:04:52;;;;;;;44.80;20.30;;;;;;;1.52;63.36;102028.00;5057198;28;20048;-64
2022/03/06 08:07:19;;;;;;;46.15;20.75;;;;;;;1.77;62.82;102037.44;5076233;28;20051;-64
2022/03/06 08:09:46;;;;;;;48.97;19.60;;;;;;;1.94;61.21;102041.09;5060577;28;20100;-64
2022/03/06 08:12:12;;;;;;;49.78;22.17;;;;;;;1.76;61.25;102040.94;5060139;28;20063;-64
2022/03/06 08:14:39;;;;;;;43.42;20.33;;;;;;;1.91;61.67;102037.69;5095046;28;20039;-64
2022/03/06 08:17:06;;;;;;;46.95;20.88;;;;;;;1.92;61.15;102031.53;5094980;28;20514;-64
2022/03/06 08:19:33;;;;;;;47.50;20.33;;;;;;;1.77;61.79;102039.22;5044024;28;20122;-64
2022/03/06 08:21:59;;;;;;;44.97;20.88;;;;;;;1.99;61.30;102046.97;5044122;28;20040;-64
2022/03/06 08:24:27;;;;;;;48.15;23.13;;;;;;;1.80;61.41;102042.53;5094496;28;20101;-64
2022/03/06 08:26:54;;;;;;;51.92;21.52;;;;;;;1.86;61.83;102044.03;5060273;28;20047;-64
2022/03/06 08:29:21;;;;;;;46.40;20.83;;;;;;;1.79;61.44;102042.59;5059845;28;20044;-64
2022/03/06 08:31:50;;;;;;;50.42;21.65;;;;;;;1.85;61.20;102044.94;5076581;28;20040;-64
2022/03/06 08:34:17;;;;;;;48.65;22.98;;;;;;;1.72;61.57;102047.25;5076080;28;20040;-64
2022/03/06 08:36:44;;;;;;;46.38;21.73;;;;;;;1.67;61.25;102046.56;5076742;28;20036;-64
2022/03/06 08:39:10;;;;;;;56.58;23.33;;;;;;;1.64;60.69;102055.41;5076445;28;20509;-64
2022/03/06 08:41:37;;;;;;;47.25;21.73;;;;;;;1.72;60.73;102053.31;5059961;28;20055;-64
2022/03/06 08:44:04;;;;;;;53.55;23.08;;;;;;;1.70;61.00;102052.53;5059635;28;20052;-64
2022/03/06 08:46:33;;;;;;;49.28;24.05;;;;;;;1.78;60.18;102056.59;5094306;28;20040;-64
2022/03/06 08:48:59;;;;;;;54.40;22.30;;;;;;;1.87;60.36;102056.19;5093975;28;20119;-64
2022/03/06 08:51:26;;;;;;;46.95;21.25;;;;;;;2.06;59.37;102061.50;5043113;28;20048;-64
2022/03/06 08:53:53;;;;;;;50.03;21.98;;;;;;;2.01;59.87;102058.22;5059121;28;20040;-64
2022/03/06 08:56:20;;;;;;;49.53;21.65;;;;;;;2.13;59.34;102059.44;5059208;28;20040;-64
2022/03/06 08:58:46;;;;;;;50.90;21.35;;;;;;;2.23;59.60;102066.00;5059575;28;20040;-64
2022/03/06 09:01:13;;;;;;;47.70;20.92;;;;;;;2.37;60.17;102058.38;5042899;28;20515;-64
2022/03/06 09:03:40;;;;;;;51.53;23.02;;;;;;;2.35;59.93;102062.84;5059747;28;20040;-64
2022/03/06 09:06:08;;;;;;;46.00;21.23;;;;;;;2.34;59.59;102063.75;5042917;28;20040;-65
2022/03/06 09:08:35;;;;;;;46.33;21.63;;;;;;;2.74;58.86;102061.09;5075501;28;20070;-64
2022/03/06 09:11:05;;;;;;;54.47;21.88;;;;;;;2.84;58.00;102065.84;5075788;28;20048;-64
2022/03/06 09:13:33;;;;;;;54.20;22.27;;;;;;;2.91;57.99;102053.31;5075434;28;20040;-64
2022/03/06 09:16:01;;;;;;;42.70;21.20;;;;;;;2.85;57.77;102064.06;5058986;28;20055;-64
2022/03/06 09:18:27;;;;;;;54.28;24.00;;;;;;;2.72;58.79;102060.31;5075928;28;20457;-64
2022/03/06 09:20:54;;;;;;;49.17;23.23;;;;;;;2.92;58.07;102064.63;5058734;28;20036;-64
2022/03/06 09:23:21;;;;;;;48.33;21.45;;;;;;;2.96;58.25;102064.41;5075886;28;20050;-65
2022/03/06 09:25:48;;;;;;;56.00;23.77;;;;;;;2.88;58.51;102070.00;5099349;28;20047;-64
2022/03/06 09:28:14;;;;;;;48.35;21.77;;;;;;;3.16;58.09;102063.44;5100645;28;20040;-65
2022/03/06 09:30:42;;;;;;;46.70;20.73;;;;;;;3.52;57.93;102073.09;5076869;28;20051;-65
2022/03/06 09:33:09;;;;;;;50.72;23.20;;;;;;;3.31;57.38;102072.38;5093328;28;20043;-65
2022/03/06 09:35:36;;;;;;;46.88;23.55;;;;;;;3.00;57.38;102070.34;5058703;28;20044;-64
2022/03/06 09:38:03;;;;;;;49.92;23.77;;;;;;;3.12;57.44;102076.78;5058800;28;20044;-64
2022/03/06 09:40:30;;;;;;;45.17;20.20;;;;;;;3.24;56.81;102071.81;5042437;28;20111;-64
2022/03/06 09:42:57;;;;;;;49.15;24.02;;;;;;;3.59;55.69;102074.47;5092963;28;20047;-64
2022/03/06 09:45:24;;;;;;;49.35;21.45;;;;;;;4.00;54.75;102075.94;5075293;28;20048;-65
2022/03/06 09:47:51;;;;;;;44.88;20.85;;;;;;;4.60;53.65;102057.88;5058491;28;20086;-64
2022/03/06 09:50:18;;;;;;;44.10;22.17;;;;;;;4.36;52.47;102067.91;5058035;28;20442;-63
2022/03/06 09:52:45;;;;;;;59.13;27.88;;;;;;;4.20;53.02;102070.53;5041906;28;20070;-63
2022/03/06 09:55:12;;;;;;;42.45;20.95;;;;;;;5.13;50.90;102066.38;5093322;28;20130;-65
2022/03/06 09:57:39;;;;;;;43.38;20.92;;;;;;;5.75;48.92;102063.69;5092564;28;20058;-64
2022/03/06 10:00:08;;;;;;;45.72;22.60;;;;;;;5.26;49.62;102066.53;5061925;28;20070;-64
2022/03/06 10:02:52;;;;;;;48.33;22.52;;;;;;;4.69;51.60;102060.94;5055337;28;20045;-64
2022/03/06 10:05:37;;;;;;;44.03;22.45;;;;;;;4.39;51.47;102069.53;5038129;28;20056;-64
2022/03/06 10:08:26;;;;;;;44.03;20.63;;;;;;;4.68;50.81;102067.13;5051290;28;20065;-64
2022/03/06 10:10:56;;;;;;;48.95;22.02;;;;;;;4.60;50.89;102064.91;5035276;28;20045;-64
2022/03/06 10:13:30;;;;;;;48.60;23.23;;;;;;;5.48;49.23;102065.31;5051509;28;20555;-64
2022/03/06 10:16:18;;;;;;;45.78;21.75;;;;;;;6.20;47.37;102076.00;5035315;28;20052;-64
2022/03/06 10:18:48;;;;;;;45.80;22.55;;;;;;;5.29;48.76;102068.97;5042044;28;20044;-64
2022/03/06 10:21:32;;;;;;;50.15;24.23;;;;;;;4.86;50.61;102076.66;5035216;28;20076;-64
2022/03/06 10:24:06;;;;;;;52.97;24.83;;;;;;;5.35;49.32;102073.06;5052856;28;20037;-64
2022/03/06 10:26:36;;;;;;;48.92;25.65;;;;;;;5.18;49.10;102077.50;5056938;28;20043;-64
2022/03/06 10:29:08;;;;;;;58.95;27.50;;;;;;;5.02;50.86;102083.69;5073294;28;20041;-64
2022/03/06 10:31:35;;;;;;;61.33;27.70;;;;;;;4.91;50.20;102077.25;5058967;28;20048;-64
2022/03/06 10:34:05;;;;;;;54.13;26.35;;;;;;;5.14;49.99;102075.94;5035972;28;20044;-64
2022/03/06 10:36:44;;;;;;;55.30;26.83;;;;;;;5.15;49.86;102068.91;5076565;28;20052;-64
2022/03/06 10:39:18;;;;;;;57.13;28.27;;;;;;;4.94;50.55;102076.22;5075585;28;20040;-64
2022/03/06 10:41:47;;;;;;;59.33;27.77;;;;;;;5.24;49.58;102067.53;5075248;28;20044;-65
2022/03/06 10:44:16;;;;;;;56.90;27.10;;;;;;;5.99;47.58;102068.47;5075268;28;20483;-64
2022/03/06 10:46:58;;;;;;;52.17;25.05;;;;;;;8.78;41.78;102071.38;5074898;28;20443;-64
2022/03/06 10:49:26;;;;;;;;;;;;;;;9.49;38.92;102072.38;5076397;28;20433;-64
2022/03/06 10:51:53;;;;;;;49.70;23.92;;;;;;;8.41;39.62;102074.81;5075245;28;19963;-65
2022/03/06 10:54:20;;;;;;;47.90;24.00;;;;;;;9.30;38.32;102062.31;5074801;28;20483;-64
2022/03/06 10:56:50;;;;;;;46.88;23.77;;;;;;;10.80;34.87;102059.66;5075064;28;20044;-65
2022/03/06 10:59:21;;;;;;;53.13;25.30;;;;;;;9.11;38.38;102061.97;5074960;28;20447;-65
2022/03/06 11:01:49;;;;;;;52.33;26.02;;;;;;;10.07;36.75;102060.97;5075978;28;20408;-65
2022/03/06 11:04:19;;;;;;;48.13;24.30;;;;;;;8.18;38.39;102060.53;5074431;28;20037;-65
2022/03/06 11:06:49;;;;;;;50.90;24.15;;;;;;;8.56;38.10;102062.34;5076028;28;20132;-64
2022/03/06 11:09:20;;;;;;;41.70;21.05;;;;;;;8.98;36.61;102060.19;5094908;28;20044;-64
2022/03/06 11:11:50;;;;;;;42.17;21.23;;;;;;;10.51;33.69;102060.19;5096181;28;20044;-64
2022/03/06 11:14:17;;;;;;;41.92;21.92;;;;;;;11.14;31.97;102057.75;5096338;28;20047;-64
2022/03/06 11:16:44;;;;;;;45.15;21.42;;;;;;;11.36;32.19;102060.47;5096080;28;20043;-65
2022/03/06 11:19:11;;;;;;;43.28;21.52;;;;;;;10.97;32.25;102045.03;5061571;28;20094;-65